Time;durP1;ratioP1;P1;durP2;ratioP2;P2;SDS_P1;SDS_P2;PMS_P1;PMS_P2;Temp;Humidity;BMP_temperature;BMP_pressure;BME280_temperature;BME280_humidity;BME280_pressure;Samples;Min_cycle;Max_cycle;Signal;HPM_P1;HPM_P2
2022/07/13 00:01:16;;;;;;;4.68;2.53;;;14.70;99.90;;;;;;5012736;28;20037;-61
2022/07/13 00:03:42;;;;;;;3.45;2.30;;;14.70;99.90;;;;;;5008957;28;20103;-61
2022/07/13 00:06:07;;;;;;;3.92;2.33;;;14.60;99.90;;;;;;5006399;28;20037;-61
2022/07/13 00:08:33;;;;;;;3.38;2.17;;;14.50;99.90;;;;;;5008092;28;20034;-61
2022/07/13 00:10:59;;;;;;;5.88;2.70;;;14.50;99.90;;;;;;5008599;28;20077;-61
2022/07/13 00:13:25;;;;;;;3.20;2.33;;;14.40;99.90;;;;;;5006064;28;20088;-61
2022/07/13 00:15:51;;;;;;;3.33;2.33;;;14.40;99.90;;;;;;5008806;28;20120;-61
2022/07/13 00:18:17;;;;;;;6.15;2.42;;;14.30;99.90;;;;;;5007147;28;20030;-61
2022/07/13 00:20:45;;;;;;;5.95;2.45;;;14.30;99.90;;;;;;5007465;28;20704;-61
2022/07/13 00:23:11;;;;;;;4.25;2.50;;;14.20;99.90;;;;;;5007946;28;20049;-61
2022/07/13 00:25:37;;;;;;;4.97;2.40;;;14.30;99.90;;;;;;5008838;28;20054;-61
2022/07/13 00:28:02;;;;;;;9.43;2.38;;;14.30;99.90;;;;;;5008405;28;20169;-61
2022/07/13 00:30:28;;;;;;;2.75;2.25;;;14.30;99.90;;;;;;5007339;28;20037;-61
2022/07/13 00:32:54;;;;;;;3.58;2.40;;;14.20;99.90;;;;;;5009348;28;20026;-61
2022/07/13 00:35:19;;;;;;;3.58;2.60;;;14.20;99.90;;;;;;5006170;28;20076;-61
2022/07/13 00:37:45;;;;;;;3.83;2.58;;;14.20;99.90;;;;;;5009756;28;20032;-61
2022/07/13 00:40:12;;;;;;;3.90;2.72;;;14.30;99.90;;;;;;5010274;28;20046;-61
2022/07/13 00:42:38;;;;;;;3.80;2.50;;;14.30;99.90;;;;;;5013394;28;20026;-61
2022/07/13 00:45:04;;;;;;;5.72;2.47;;;14.20;99.90;;;;;;5011360;28;20471;-61
2022/07/13 00:47:33;;;;;;;3.63;2.50;;;14.10;99.90;;;;;;5016940;28;20029;-61
2022/07/13 00:50:07;;;;;;;4.65;2.17;;;14.10;99.90;;;;;;5016702;28;20038;-61
2022/07/13 00:52:37;;;;;;;4.20;2.35;;;14.00;99.90;;;;;;5016960;28;20029;-61
2022/07/13 00:55:05;;;;;;;3.33;2.40;;;14.00;99.90;;;;;;5019749;28;20058;-61
2022/07/13 00:57:34;;;;;;;3.80;2.40;;;14.00;99.90;;;;;;5012514;28;20030;-61
2022/07/13 01:00:05;;;;;;;3.97;2.53;;;14.10;99.90;;;;;;5012162;28;20037;-61
2022/07/13 01:02:31;;;;;;;4.13;2.33;;;14.10;99.90;;;;;;5022779;28;20044;-61
2022/07/13 01:04:56;;;;;;;4.30;2.70;;;13.90;99.90;;;;;;5013533;28;20059;-61
2022/07/13 01:07:22;;;;;;;3.65;2.42;;;13.90;99.90;;;;;;5017541;28;20034;-61
2022/07/13 01:09:48;;;;;;;3.70;2.45;;;13.90;99.90;;;;;;5015398;28;20568;-61
2022/07/13 01:12:14;;;;;;;4.53;2.30;;;13.80;99.90;;;;;;5010756;28;20042;-61
2022/07/13 01:14:40;;;;;;;4.25;2.47;;;13.70;99.90;;;;;;5011827;28;20037;-61
2022/07/13 01:17:06;;;;;;;3.22;2.25;;;13.60;99.90;;;;;;5011399;28;20117;-61
2022/07/13 01:19:34;;;;;;;3.50;2.40;;;13.60;99.90;;;;;;5010508;28;20046;-61
2022/07/13 01:22:02;;;;;;;5.28;2.67;;;13.60;99.90;;;;;;5019311;28;20034;-61
2022/07/13 01:24:29;;;;;;;7.82;2.45;;;13.60;99.90;;;;;;5015387;28;20058;-61
2022/07/13 01:26:55;;;;;;;4.75;2.53;;;13.50;99.90;;;;;;5011466;28;20073;-61
2022/07/13 01:29:21;;;;;;;3.45;2.50;;;13.50;99.90;;;;;;5010669;28;20034;-61
2022/07/13 01:31:47;;;;;;;5.80;2.40;;;13.30;99.90;;;;;;5012604;28;20029;-61
2022/07/13 01:34:12;;;;;;;3.20;2.35;;;13.30;99.90;;;;;;5008806;28;20072;-61
2022/07/13 01:36:41;;;;;;;5.53;2.70;;;13.30;99.90;;;;;;5011603;28;20030;-61
2022/07/13 01:39:07;;;;;;;4.40;2.50;;;13.40;99.90;;;;;;5012424;28;20033;-61
2022/07/13 01:41:33;;;;;;;5.05;2.67;;;13.40;99.90;;;;;;5011361;28;20741;-61
2022/07/13 01:43:59;;;;;;;4.15;2.88;;;13.50;99.90;;;;;;5008426;28;20466;-61
2022/07/13 01:46:26;;;;;;;4.60;2.78;;;13.60;99.90;;;;;;5009620;28;20026;-61
2022/07/13 01:48:54;;;;;;;3.88;2.53;;;13.60;99.90;;;;;;5018698;28;20034;-61
2022/07/13 01:51:20;;;;;;;4.70;2.50;;;13.50;99.90;;;;;;5009087;28;20540;-61
2022/07/13 01:53:46;;;;;;;4.70;2.97;;;13.40;99.90;;;;;;5011824;28;20038;-61
2022/07/13 01:56:12;;;;;;;5.28;2.65;;;13.40;99.90;;;;;;5006651;28;20413;-61
2022/07/13 01:58:38;;;;;;;5.00;2.65;;;13.40;99.90;;;;;;5011718;28;20500;-61
2022/07/13 02:01:04;;;;;;;3.22;2.45;;;13.40;99.90;;;;;;5008409;28;20033;-61
2022/07/13 02:03:31;;;;;;;6.10;2.35;;;13.40;99.90;;;;;;5010212;28;20026;-61
2022/07/13 02:05:58;;;;;;;5.53;2.90;;;13.40;99.90;;;;;;5015326;28;20036;-61
2022/07/13 02:08:24;;;;;;;7.63;2.92;;;13.40;99.90;;;;;;5012762;28;20068;-61
2022/07/13 02:10:50;;;;;;;4.68;2.50;;;13.40;99.90;;;;;;5010608;28;20034;-61
2022/07/13 02:13:16;;;;;;;4.00;2.75;;;13.40;99.90;;;;;;5021846;28;20485;-61
2022/07/13 02:15:43;;;;;;;4.38;2.80;;;13.20;99.90;;;;;;5009318;28;20030;-61
2022/07/13 02:18:09;;;;;;;4.88;2.85;;;13.00;99.90;;;;;;5010477;28;20445;-61
2022/07/13 02:20:35;;;;;;;4.78;2.70;;;13.00;99.90;;;;;;5015469;28;20124;-61
2022/07/13 02:23:01;;;;;;;4.22;2.80;;;12.90;99.90;;;;;;5016619;28;20056;-61
2022/07/13 02:25:28;;;;;;;4.97;2.97;;;13.00;99.90;;;;;;5015619;28;20041;-60
2022/07/13 02:27:53;;;;;;;4.50;2.60;;;13.00;99.90;;;;;;5013671;28;20038;-61
2022/07/13 02:30:19;;;;;;;3.97;2.80;;;13.10;99.90;;;;;;5007486;28;20096;-61
2022/07/13 02:32:45;;;;;;;3.83;2.65;;;13.00;99.90;;;;;;5010670;28;20112;-61
2022/07/13 02:35:12;;;;;;;3.97;2.63;;;12.90;99.90;;;;;;5009972;28;20432;-61
2022/07/13 02:37:40;;;;;;;10.15;2.75;;;12.90;99.90;;;;;;5011168;28;20096;-61
2022/07/13 02:40:08;;;;;;;3.97;2.80;;;12.90;99.90;;;;;;5009461;28;20036;-61
2022/07/13 02:42:33;;;;;;;5.68;2.65;;;12.90;99.90;;;;;;5009352;28;20401;-61
2022/07/13 02:44:59;;;;;;;6.82;2.97;;;12.80;99.90;;;;;;5008695;28;20034;-61
2022/07/13 02:47:25;;;;;;;4.88;2.50;;;12.70;99.90;;;;;;5009375;28;20426;-61
2022/07/13 02:49:50;;;;;;;3.97;2.63;;;12.80;99.90;;;;;;5009770;28;21046;-61
2022/07/13 02:52:17;;;;;;;5.28;2.97;;;12.80;99.90;;;;;;5007978;28;20145;-61
2022/07/13 02:54:43;;;;;;;5.40;2.92;;;12.80;99.90;;;;;;5009402;28;20049;-61
2022/07/13 02:57:09;;;;;;;3.85;2.70;;;12.70;99.90;;;;;;5013616;28;20495;-61
2022/07/13 02:59:36;;;;;;;4.13;2.80;;;12.60;99.90;;;;;;5013376;28;20030;-61
2022/07/13 03:02:03;;;;;;;6.97;2.78;;;12.70;99.90;;;;;;5010721;28;20410;-61
2022/07/13 03:04:29;;;;;;;4.68;2.63;;;12.70;99.90;;;;;;5015876;28;20038;-61
2022/07/13 03:06:54;;;;;;;5.78;3.05;;;12.80;99.90;;;;;;5010357;28;20045;-61
2022/07/13 03:09:20;;;;;;;6.35;3.08;;;12.90;99.90;;;;;;5000496;28;20084;-61
2022/07/13 03:11:46;;;;;;;4.32;3.10;;;12.80;99.90;;;;;;5005813;28;20355;-61
2022/07/13 03:14:11;;;;;;;4.28;3.20;;;12.80;99.90;;;;;;5009545;28;20033;-60
2022/07/13 03:16:37;;;;;;;4.85;2.78;;;12.80;99.90;;;;;;5009042;28;20466;-60
2022/07/13 03:19:02;;;;;;;4.32;2.90;;;12.70;99.90;;;;;;5010286;28;20459;-60
2022/07/13 03:21:29;;;;;;;5.32;2.58;;;12.70;99.90;;;;;;5007829;28;20052;-61
2022/07/13 03:23:55;;;;;;;4.25;2.70;;;12.60;99.90;;;;;;5009612;28;20029;-61
2022/07/13 03:26:21;;;;;;;3.90;2.75;;;12.50;99.90;;;;;;5009456;28;20050;-60
2022/07/13 03:28:47;;;;;;;4.82;2.60;;;12.40;99.90;;;;;;5009098;28;20030;-60
2022/07/13 03:31:13;;;;;;;3.72;2.60;;;12.40;99.90;;;;;;5009122;28;20462;-60
2022/07/13 03:33:38;;;;;;;3.72;2.67;;;12.40;99.90;;;;;;5008714;28;20505;-61
2022/07/13 03:36:04;;;;;;;3.80;2.50;;;12.50;99.90;;;;;;5007455;28;20034;-61
2022/07/13 03:38:31;;;;;;;6.50;3.10;;;12.60;99.90;;;;;;5006218;28;20030;-61
2022/07/13 03:40:56;;;;;;;5.30;3.20;;;12.60;99.90;;;;;;5008748;28;20049;-60
2022/07/13 03:43:22;;;;;;;5.07;2.67;;;12.60;99.90;;;;;;5009275;28;20022;-61
2022/07/13 03:45:48;;;;;;;5.18;3.40;;;12.60;99.90;;;;;;5008145;28;20037;-61
2022/07/13 03:48:16;;;;;;;4.03;3.05;;;12.50;99.90;;;;;;5008230;28;20065;-61
2022/07/13 03:50:42;;;;;;;4.50;2.80;;;12.50;99.90;;;;;;5008972;28;20026;-61
2022/07/13 03:53:08;;;;;;;3.33;2.58;;;12.40;99.90;;;;;;5006628;28;20034;-60
2022/07/13 03:55:34;;;;;;;4.95;3.05;;;12.40;99.90;;;;;;4993041;28;20708;-60
2022/07/13 03:58:00;;;;;;;7.10;3.30;;;12.40;99.90;;;;;;5008210;28;20038;-61
2022/07/13 04:00:25;;;;;;;4.03;2.60;;;12.50;99.90;;;;;;5000170;28;20097;-61
2022/07/13 04:02:51;;;;;;;6.55;2.90;;;12.60;99.90;;;;;;5008743;28;20030;-62
2022/07/13 04:05:17;;;;;;;5.65;3.00;;;12.50;99.90;;;;;;5008702;28;20160;-61
2022/07/13 04:07:42;;;;;;;3.88;2.88;;;12.50;99.90;;;;;;5008852;28;20053;-61
2022/07/13 04:10:08;;;;;;;4.45;2.88;;;12.60;99.90;;;;;;5008068;28;20077;-61
2022/07/13 04:12:34;;;;;;;7.32;3.17;;;12.60;99.90;;;;;;5005161;28;20087;-61
2022/07/13 04:15:00;;;;;;;4.30;3.05;;;12.60;99.90;;;;;;5008990;28;20451;-61
2022/07/13 04:17:25;;;;;;;4.68;2.75;;;12.50;99.90;;;;;;5008403;28;20372;-61
2022/07/13 04:19:51;;;;;;;5.82;3.15;;;12.60;99.90;;;;;;5009653;28;20029;-61
2022/07/13 04:22:17;;;;;;;4.30;2.60;;;12.60;99.90;;;;;;5005772;28;20034;-61
2022/07/13 04:24:42;;;;;;;4.90;2.58;;;12.70;99.90;;;;;;5008015;28;20069;-61
2022/07/13 04:27:08;;;;;;;4.80;2.75;;;12.90;99.90;;;;;;5002147;28;20041;-61
2022/07/13 04:29:34;;;;;;;5.82;2.90;;;13.00;99.90;;;;;;5002421;28;20037;-61
2022/07/13 04:31:59;;;;;;;6.75;3.40;;;13.00;99.90;;;;;;5003445;28;20052;-61
2022/07/13 04:34:25;;;;;;;5.40;3.20;;;13.00;99.90;;;;;;5006489;28;20434;-61
2022/07/13 04:36:51;;;;;;;4.80;2.70;;;13.10;99.90;;;;;;5006945;28;20037;-61
2022/07/13 04:39:17;;;;;;;4.68;2.92;;;13.30;99.90;;;;;;5005588;28;20033;-61
2022/07/13 04:41:43;;;;;;;4.20;2.80;;;13.30;99.90;;;;;;5001220;28;20030;-61
2022/07/13 04:44:09;;;;;;;4.47;3.10;;;13.40;99.90;;;;;;5004173;28;20045;-61
2022/07/13 04:46:34;;;;;;;4.78;3.00;;;13.60;99.90;;;;;;5000406;28;20034;-61
2022/07/13 04:49:00;;;;;;;4.45;3.28;;;13.90;99.90;;;;;;5005363;28;20026;-61
2022/07/13 04:51:26;;;;;;;5.85;3.45;;;14.00;99.90;;;;;;5001913;28;20034;-61
2022/07/13 04:53:51;;;;;;;5.13;3.08;;;14.00;99.90;;;;;;5006079;28;20450;-61
2022/07/13 04:56:17;;;;;;;5.63;3.10;;;14.30;99.90;;;;;;5002971;28;20729;-61
2022/07/13 04:58:43;;;;;;;11.63;2.92;;;14.30;99.90;;;;;;5001907;28;20035;-61
2022/07/13 05:01:08;;;;;;;3.60;2.70;;;14.30;99.90;;;;;;5006099;28;20038;-60
2022/07/13 05:03:34;;;;;;;4.97;3.28;;;14.60;99.90;;;;;;5004235;28;20033;-61
2022/07/13 05:06:00;;;;;;;4.35;3.05;;;14.80;99.90;;;;;;5006087;28;20089;-61
2022/07/13 05:08:26;;;;;;;4.57;3.20;;;15.00;99.90;;;;;;5008470;28;20034;-61
2022/07/13 05:10:53;;;;;;;4.20;3.10;;;15.20;99.90;;;;;;5006893;28;20040;-61
2022/07/13 05:13:18;;;;;;;5.72;3.00;;;15.40;99.90;;;;;;5004441;28;20037;-61
2022/07/13 05:15:45;;;;;;;4.30;3.00;;;15.50;99.90;;;;;;4999300;28;20034;-61
2022/07/13 05:18:11;;;;;;;5.07;2.95;;;15.60;99.90;;;;;;5000715;28;20425;-61
2022/07/13 05:20:36;;;;;;;4.57;3.10;;;15.70;99.90;;;;;;5001490;28;20026;-61
2022/07/13 05:23:02;;;;;;;4.50;2.65;;;15.60;99.90;;;;;;5005140;28;20602;-61
2022/07/13 05:25:28;;;;;;;6.43;2.80;;;15.60;99.90;;;;;;5004064;28;20450;-61
2022/07/13 05:27:54;;;;;;;4.40;3.10;;;15.90;99.90;;;;;;5007652;28;20379;-61
2022/07/13 05:30:19;;;;;;;4.18;2.80;;;16.10;99.90;;;;;;5006523;28;20060;-61
2022/07/13 05:32:45;;;;;;;4.82;3.15;;;16.20;99.90;;;;;;5003549;28;20472;-61
2022/07/13 05:35:11;;;;;;;5.28;3.15;;;16.30;99.90;;;;;;5006339;28;20045;-60
2022/07/13 05:37:37;;;;;;;5.72;3.20;;;16.30;99.90;;;;;;5003741;28;20462;-61
2022/07/13 05:40:03;;;;;;;4.75;3.00;;;16.30;99.90;;;;;;5007810;28;20171;-60
2022/07/13 05:42:30;;;;;;;5.63;2.85;;;16.40;99.90;;;;;;5005603;28;20513;-61
2022/07/13 05:44:56;;;;;;;5.93;3.10;;;16.50;99.90;;;;;;5007771;28;20037;-61
2022/07/13 05:47:22;;;;;;;6.50;3.28;;;16.60;99.90;;;;;;5008604;28;20034;-61
2022/07/13 05:49:47;;;;;;;4.05;2.92;;;16.70;99.90;;;;;;5002856;28;20037;-61
2022/07/13 05:52:13;;;;;;;10.38;3.13;;;16.60;99.90;;;;;;5006574;28;20462;-61
2022/07/13 05:54:39;;;;;;;4.60;2.70;;;16.60;99.90;;;;;;5006779;28;20054;-61
2022/07/13 05:57:04;;;;;;;4.53;3.22;;;16.70;99.90;;;;;;5009076;28;20038;-61
2022/07/13 05:59:32;;;;;;;7.45;3.20;;;17.00;99.90;;;;;;5007043;28;20022;-61
2022/07/13 06:01:59;;;;;;;3.78;2.72;;;17.30;99.90;;;;;;5004726;28;20034;-61
2022/07/13 06:04:24;;;;;;;3.88;2.95;;;17.50;99.90;;;;;;5008367;28;20375;-61
2022/07/13 06:06:50;;;;;;;7.03;3.20;;;17.40;99.90;;;;;;5005529;28;20057;-61
2022/07/13 06:09:16;;;;;;;5.22;3.30;;;17.20;99.90;;;;;;5010042;28;20113;-61
2022/07/13 06:11:41;;;;;;;8.88;3.00;;;17.20;99.90;;;;;;5006051;28;20187;-61
2022/07/13 06:14:07;;;;;;;5.05;3.00;;;17.30;99.90;;;;;;5006375;28;20455;-61
2022/07/13 06:16:33;;;;;;;5.07;3.00;;;17.40;99.90;;;;;;5001582;28;20038;-61
2022/07/13 06:18:59;;;;;;;4.20;2.90;;;17.70;99.90;;;;;;5011703;28;20033;-61
2022/07/13 06:21:25;;;;;;;4.88;2.67;;;17.90;99.90;;;;;;5005291;28;20034;-61
2022/07/13 06:23:50;;;;;;;4.38;2.97;;;18.30;99.90;;;;;;5005980;28;20037;-62
2022/07/13 06:26:16;;;;;;;6.10;2.75;;;18.50;99.90;;;;;;5007471;28;20562;-61
2022/07/13 06:28:42;;;;;;;4.50;2.85;;;18.70;99.90;;;;;;5004735;28;20884;-62
2022/07/13 06:31:08;;;;;;;7.25;3.28;;;19.00;99.90;;;;;;5007363;28;20061;-61
2022/07/13 06:33:35;;;;;;;4.35;2.67;;;19.20;99.90;;;;;;5003593;28;20057;-61
2022/07/13 06:36:01;;;;;;;4.65;2.90;;;19.40;99.90;;;;;;5007174;28;20578;-61
2022/07/13 06:38:26;;;;;;;3.90;2.25;;;19.50;99.90;;;;;;5005663;28;20045;-61
2022/07/13 06:40:52;;;;;;;4.55;2.53;;;19.60;99.90;;;;;;5003207;28;20026;-61
2022/07/13 06:43:18;;;;;;;7.05;2.67;;;19.80;99.90;;;;;;5004994;28;20741;-62
2022/07/13 06:45:43;;;;;;;5.80;2.42;;;20.10;99.90;;;;;;5002997;28;20103;-61
2022/07/13 06:48:09;;;;;;;5.28;2.38;;;20.20;99.90;;;;;;5006756;28;20038;-62
2022/07/13 06:50:35;;;;;;;5.65;2.53;;;20.40;99.90;;;;;;5003310;28;20022;-62
2022/07/13 06:53:01;;;;;;;3.33;2.08;;;20.60;99.90;;;;;;5006031;28;20026;-61
2022/07/13 06:55:27;;;;;;;4.53;2.33;;;20.80;99.90;;;;;;5003956;28;20152;-61
2022/07/13 06:57:53;;;;;;;6.65;2.17;;;21.10;99.90;;;;;;5004576;28;20132;-62
2022/07/13 07:00:19;;;;;;;9.68;2.45;;;21.30;99.90;;;;;;5005287;28;20104;-62
2022/07/13 07:02:44;;;;;;;7.15;2.60;;;21.50;99.90;;;;;;5007377;28;20065;-62
2022/07/13 07:05:10;;;;;;;4.00;2.42;;;21.70;99.90;;;;;;4999979;28;20120;-62
2022/07/13 07:07:41;;;;;;;5.43;2.20;;;21.90;99.90;;;;;;5000355;28;20044;-61
2022/07/13 07:10:08;;;;;;;3.95;2.25;;;22.10;99.90;;;;;;5010825;28;20049;-62
2022/07/13 07:12:34;;;;;;;2.70;2.00;;;22.20;99.90;;;;;;5007266;28;20064;-62
2022/07/13 07:15:00;;;;;;;1.73;1.63;;;22.30;99.90;;;;;;5005384;28;20437;-62
2022/07/13 07:17:25;;;;;;;6.65;1.92;;;22.60;99.90;;;;;;5004166;28;20030;-62
2022/07/13 07:19:56;;;;;;;5.45;1.90;;;22.80;99.90;;;;;;5007013;28;20038;-62
2022/07/13 07:22:23;;;;;;;3.88;1.75;;;23.00;99.90;;;;;;5008956;28;20053;-62
2022/07/13 07:24:50;;;;;;;1.77;1.52;;;23.20;99.90;;;;;;5008370;28;20025;-62
2022/07/13 07:27:16;;;;;;;4.50;1.70;;;23.50;99.90;;;;;;5008649;28;20112;-62
2022/07/13 07:29:42;;;;;;;3.83;1.60;;;23.90;99.90;;;;;;5004582;28;20172;-62
2022/07/13 07:32:08;;;;;;;3.05;1.50;;;24.10;99.80;;;;;;5008446;28;20562;-62
2022/07/13 07:34:33;;;;;;;4.03;1.50;;;24.30;99.30;;;;;;5007511;28;20116;-62
2022/07/13 07:36:59;;;;;;;1.45;1.35;;;24.30;97.80;;;;;;5004109;28;20041;-62
2022/07/13 07:39:26;;;;;;;6.95;1.42;;;24.30;99.70;;;;;;5006218;28;20022;-61
2022/07/13 07:41:51;;;;;;;8.13;1.50;;;24.30;99.50;;;;;;5007218;28;20493;-62
2022/07/13 07:44:18;;;;;;;3.40;1.63;;;24.40;97.50;;;;;;5006845;28;20026;-62
2022/07/13 07:46:45;;;;;;;2.70;1.50;;;24.40;98.40;;;;;;5005258;28;20042;-61
2022/07/13 07:49:10;;;;;;;3.05;1.70;;;24.50;98.60;;;;;;5011103;28;20390;-61
2022/07/13 07:51:36;;;;;;;2.63;1.50;;;24.40;98.60;;;;;;5003844;28;20030;-61
2022/07/13 07:54:02;;;;;;;2.03;1.42;;;24.50;97.50;;;;;;5000280;28;20402;-61
2022/07/13 07:56:28;;;;;;;4.65;1.75;;;24.60;97.20;;;;;;5005853;28;20364;-61
2022/07/13 07:58:53;;;;;;;1.63;1.42;;;24.70;97.70;;;;;;5008601;28;20038;-62
2022/07/13 08:01:19;;;;;;;1.58;1.45;;;24.70;94.90;;;;;;5004830;28;20393;-62
2022/07/13 08:03:45;;;;;;;2.03;1.63;;;24.60;93.00;;;;;;5007369;28;20092;-62
2022/07/13 08:06:11;;;;;;;2.75;1.80;;;24.70;94.50;;;;;;5003343;28;20057;-61
2022/07/13 08:08:38;;;;;;;10.18;1.85;;;24.70;93.20;;;;;;5008966;28;20038;-61
2022/07/13 08:11:03;;;;;;;7.28;1.67;;;24.80;95.60;;;;;;5005324;28;20034;-61
2022/07/13 08:13:30;;;;;;;7.88;1.42;;;25.00;92.60;;;;;;5005646;28;20084;-62
2022/07/13 08:15:56;;;;;;;11.40;2.13;;;25.20;94.70;;;;;;5006137;28;20041;-61
2022/07/13 08:18:22;;;;;;;5.57;1.52;;;25.20;92.30;;;;;;5008518;28;20045;-61
2022/07/13 08:20:47;;;;;;;2.53;1.50;;;25.20;91.50;;;;;;5005997;28;20037;-62
2022/07/13 08:25:57;;;;;;;1.80;1.55;;;25.70;92.60;;;;;;5005079;28;20037;-62
2022/07/13 08:28:23;;;;;;;5.85;1.88;;;26.00;92.80;;;;;;5002255;28;20038;-61
2022/07/13 08:30:49;;;;;;;113.22;5.30;;;26.00;87.20;;;;;;4999168;28;20026;-61
2022/07/13 08:33:15;;;;;;;12.13;2.00;;;26.00;87.80;;;;;;5006072;28;20403;-62
2022/07/13 08:38:38;;;;;;;1.60;1.50;;;26.10;88.60;;;;;;5006141;28;20029;-61
2022/07/13 08:41:04;;;;;;;1.70;1.58;;;26.00;84.90;;;;;;5001395;28;20084;-61
2022/07/13 08:43:31;;;;;;;3.05;1.42;;;25.80;87.90;;;;;;5005467;28;20103;-61
2022/07/13 08:45:57;;;;;;;6.25;1.42;;;25.70;89.90;;;;;;5005131;28;20030;-61
2022/07/13 08:48:31;;;;;;;1.50;1.38;;;25.70;82.50;;;;;;5004482;28;20088;-61
2022/07/13 08:50:57;;;;;;;19.27;2.55;;;26.00;82.20;;;;;;5002675;28;20034;-61
2022/07/13 08:53:23;;;;;;;40.83;2.33;;;26.40;83.60;;;;;;5005231;28;20150;-61
2022/07/13 08:55:50;;;;;;;55.00;3.33;;;26.80;80.70;;;;;;5004280;28;20140;-62
2022/07/13 08:58:17;;;;;;;2.63;1.67;;;27.10;76.10;;;;;;5000235;28;20470;-62
2022/07/13 09:00:43;;;;;;;5.90;1.60;;;27.30;72.60;;;;;;5006050;28;20021;-62
2022/07/13 09:06:43;;;;;;;2.03;1.50;;;27.60;74.90;;;;;;5001501;28;20068;-62
2022/07/13 09:09:33;;;;;;;2.40;1.30;;;27.80;68.60;;;;;;5002762;28;20072;-62
2022/07/13 09:12:18;;;;;;;1.77;1.13;;;27.80;69.10;;;;;;5006038;28;20030;-62
2022/07/13 09:14:53;;;;;;;12.25;1.75;;;27.90;65.60;;;;;;5004992;28;20068;-61
2022/07/13 09:17:34;;;;;;;24.80;2.40;;;28.10;61.60;;;;;;5010445;28;20491;-61
2022/07/13 09:20:20;;;;;;;3.03;1.30;;;28.30;63.40;;;;;;5011151;28;20042;-62
2022/07/13 09:22:55;;;;;;;4.47;1.23;;;28.60;57.90;;;;;;5010379;28;20042;-62
2022/07/13 09:25:37;;;;;;;3.53;1.40;;;28.50;58.80;;;;;;5011425;28;20050;-62
2022/07/13 09:28:08;;;;;;;4.07;1.38;;;28.20;62.60;;;;;;5007980;28;20065;-61
2022/07/13 09:30:35;;;;;;;1.50;1.30;;;28.20;59.90;;;;;;5010198;28;20041;-62
2022/07/13 09:33:02;;;;;;;2.33;1.00;;;28.30;58.30;;;;;;5011237;28;20038;-61
2022/07/13 09:35:56;;;;;;;2.70;1.17;;;28.00;57.50;;;;;;5011195;28;20065;-61
2022/07/13 09:38:32;;;;;;;1.23;1.10;;;27.80;57.20;;;;;;5003413;28;20471;-62
2022/07/13 09:41:14;;;;;;;3.45;1.25;;;27.70;59.10;;;;;;5010198;28;20037;-61
2022/07/13 09:46:57;;;;;;;20.08;1.67;;;28.20;52.10;;;;;;5004550;28;20044;-62
2022/07/13 09:49:44;;;;;;;2.53;1.05;;;28.70;53.20;;;;;;5010416;28;20042;-62
2022/07/13 09:52:16;;;;;;;5.07;1.10;;;29.00;50.50;;;;;;5011020;28;20037;-63
2022/07/13 09:54:44;;;;;;;8.95;1.30;;;29.20;50.60;;;;;;5010065;28;20046;-62
2022/07/13 09:57:13;;;;;;;2.53;1.25;;;29.30;52.00;;;;;;5010691;28;20040;-62
2022/07/13 09:59:44;;;;;;;1.55;1.10;;;29.20;50.30;;;;;;5003301;28;20038;-63
2022/07/13 10:02:11;;;;;;;1.10;1.00;;;29.20;51.30;;;;;;5007350;28;20042;-61
2022/07/13 10:04:37;;;;;;;6.20;1.30;;;29.30;54.80;;;;;;5008982;28;20056;-62
2022/07/13 10:07:08;;;;;;;1.23;1.00;;;29.50;55.20;;;;;;4996687;28;20038;-61
2022/07/13 10:09:37;;;;;;;2.85;1.10;;;29.50;53.60;;;;;;5009071;28;20026;-62
2022/07/13 10:12:06;;;;;;;81.07;4.10;;;29.80;54.20;;;;;;4998477;28;20093;-62
2022/07/13 10:14:32;;;;;;;29.45;1.95;;;30.10;54.50;;;;;;5001129;28;20168;-62
2022/07/13 10:16:59;;;;;;;1.85;1.20;;;30.40;52.30;;;;;;5008323;28;20926;-62
2022/07/13 10:19:25;;;;;;;3.28;1.15;;;30.40;52.50;;;;;;5011204;28;20018;-62
2022/07/13 10:22:03;;;;;;;2.00;1.20;;;30.30;49.90;;;;;;5009685;28;20033;-62
2022/07/13 10:24:29;;;;;;;1.10;0.95;;;30.20;52.80;;;;;;4996987;28;20382;-62
2022/07/13 10:27:27;;;;;;;2.97;1.10;;;30.10;54.50;;;;;;5009342;28;20042;-61
2022/07/13 10:29:55;;;;;;;1.75;1.13;;;29.80;54.10;;;;;;5006312;28;20084;-62
2022/07/13 10:32:32;;;;;;;1.42;1.10;;;29.70;51.60;;;;;;5009163;28;20065;-62
2022/07/13 10:35:04;;;;;;;8.20;1.30;;;29.50;52.50;;;;;;4997254;28;20189;-62
2022/07/13 10:37:55;;;;;;;13.18;1.45;;;29.50;52.00;;;;;;5006509;28;20100;-63
2022/07/13 10:40:22;;;;;;;60.30;3.38;;;30.00;51.60;;;;;;5008297;28;20030;-63
2022/07/13 10:42:57;;;;;;;4.00;0.95;;;30.40;48.60;;;;;;5005881;28;20046;-62
2022/07/13 10:45:41;;;;;;;162.93;6.35;;;30.40;48.20;;;;;;5003667;28;20168;-63
2022/07/13 10:48:32;;;;;;;85.75;3.80;;;30.60;48.80;;;;;;5008504;28;20068;-63
2022/07/13 10:50:59;;;;;;;2.55;1.20;;;30.70;51.60;;;;;;5004264;28;20655;-61
2022/07/13 10:53:45;;;;;;;7.90;1.40;;;30.40;51.50;;;;;;5008361;28;20389;-62
2022/07/13 10:56:18;;;;;;;1.42;1.25;;;30.40;49.40;;;;;;5010152;28;20087;-62
2022/07/13 10:58:45;;;;;;;2.40;0.93;;;30.30;50.80;;;;;;5008995;28;20064;-63
2022/07/13 11:01:30;;;;;;;1.98;1.20;;;30.50;52.40;;;;;;5008494;28;20125;-62
2022/07/13 11:03:56;;;;;;;52.92;3.13;;;30.50;54.30;;;;;;5004470;28;20030;-62
2022/07/13 11:06:23;;;;;;;3.33;1.13;;;30.60;51.60;;;;;;5007370;28;20395;-62
2022/07/13 11:09:20;;;;;;;2.15;1.30;;;30.80;49.40;;;;;;5006725;28;20034;-62
2022/07/13 11:11:53;;;;;;;2.33;1.02;;;30.90;47.80;;;;;;5005071;28;20049;-62
2022/07/13 11:14:39;;;;;;;1.40;0.90;;;31.00;47.50;;;;;;5007343;28;20033;-62
2022/07/13 11:17:19;;;;;;;1.05;0.68;;;31.10;44.00;;;;;;5006748;28;20067;-62
2022/07/13 11:19:55;;;;;;;5.80;1.10;;;31.40;42.50;;;;;;5005775;28;20026;-62
2022/07/13 11:22:22;;;;;;;2.97;0.93;;;31.90;44.20;;;;;;5006691;28;20325;-63
2022/07/13 11:25:15;;;;;;;1.80;0.93;;;32.00;41.40;;;;;;5005414;28;20033;-62
2022/07/13 11:27:58;;;;;;;2.20;1.00;;;32.30;46.10;;;;;;5005477;28;20137;-62
2022/07/13 11:30:29;;;;;;;4.00;1.13;;;32.40;45.10;;;;;;5005179;28;20109;-62
2022/07/13 11:32:55;;;;;;;1.10;0.80;;;32.00;43.60;;;;;;5005951;28;20494;-62
2022/07/13 11:35:21;;;;;;;3.33;1.15;;;31.70;44.60;;;;;;5006309;28;20485;-62
2022/07/13 11:37:48;;;;;;;1.20;0.98;;;31.50;43.30;;;;;;5006215;28;20116;-61
2022/07/13 11:40:34;;;;;;;1.15;0.77;;;31.50;41.70;;;;;;5005916;28;20061;-63
2022/07/13 11:43:00;;;;;;;1.73;0.80;;;31.70;42.50;;;;;;5003868;28;20042;-62
2022/07/13 11:45:30;;;;;;;3.53;1.30;;;31.60;43.70;;;;;;5007421;28;20064;-62
2022/07/13 11:48:03;;;;;;;7.68;1.10;;;31.60;44.10;;;;;;5009082;28;20609;-62
2022/07/13 11:50:42;;;;;;;1.98;0.90;;;31.70;41.80;;;;;;5006914;28;20459;-62
2022/07/13 11:53:08;;;;;;;0.70;0.70;;;31.50;42.10;;;;;;5006004;28;20034;-62
2022/07/13 11:55:35;;;;;;;1.42;0.90;;;31.10;42.80;;;;;;5007940;28;20514;-63
2022/07/13 11:58:01;;;;;;;1.80;0.90;;;31.00;41.20;;;;;;5005542;28;20026;-62
2022/07/13 12:00:28;;;;;;;175.32;6.47;;;30.70;41.60;;;;;;5004574;28;20060;-62
2022/07/13 12:02:55;;;;;;;3.80;1.00;;;30.80;40.50;;;;;;5005125;28;20030;-63
2022/07/13 12:05:26;;;;;;;1.58;0.90;;;30.80;42.00;;;;;;5005111;28;20368;-62
2022/07/13 12:08:03;;;;;;;0.80;0.80;;;30.90;40.10;;;;;;5006765;28;20062;-62
2022/07/13 12:10:30;;;;;;;1.08;0.85;;;31.10;42.90;;;;;;4999695;28;20034;-62
2022/07/13 12:12:56;;;;;;;1.00;0.75;;;31.10;44.00;;;;;;5000206;28;20064;-62
2022/07/13 12:15:22;;;;;;;3.65;0.95;;;31.20;42.90;;;;;;5004574;28;20065;-63
2022/07/13 12:17:48;;;;;;;2.15;0.80;;;31.10;44.20;;;;;;5005545;28;20103;-63
2022/07/13 12:20:20;;;;;;;6.68;1.00;;;31.40;45.10;;;;;;5008056;28;20037;-64
2022/07/13 12:22:59;;;;;;;4.00;1.30;;;31.90;40.90;;;;;;5006705;28;20570;-61
2022/07/13 12:25:32;;;;;;;1.38;0.90;;;32.10;40.20;;;;;;5005907;28;20439;-62
2022/07/13 12:27:59;;;;;;;1.35;1.00;;;32.30;40.40;;;;;;5003970;28;20030;-62
2022/07/13 12:30:25;;;;;;;2.05;1.00;;;32.40;39.60;;;;;;5003279;28;20026;-62
2022/07/13 12:32:59;;;;;;;3.30;1.00;;;32.20;37.30;;;;;;5004447;28;20112;-62
2022/07/13 12:35:29;;;;;;;1.10;1.00;;;32.20;40.70;;;;;;5004122;28;20026;-62
2022/07/13 12:37:56;;;;;;;;;;;32.50;41.90;;;;;;5006738;28;20034;-62
2022/07/13 12:40:44;;;;;;;1.40;0.90;;;32.80;41.80;;;;;;5008560;28;20616;-63
2022/07/13 12:43:23;;;;;;;5.38;1.23;;;32.90;41.00;;;;;;5003174;28;20076;-63
2022/07/13 12:45:57;;;;;;;0.93;0.65;;;33.00;40.30;;;;;;5006816;28;20498;-62
2022/07/13 12:48:24;;;;;;;0.93;0.60;;;32.90;39.20;;;;;;5007485;28;20037;-62
2022/07/13 12:51:08;;;;;;;3.92;0.90;;;32.50;38.00;;;;;;5009944;28;20065;-62
2022/07/13 12:53:47;;;;;;;0.75;0.75;;;32.20;39.80;;;;;;5008196;28;20069;-62
2022/07/13 12:56:14;;;;;;;2.72;1.00;;;31.80;39.20;;;;;;5006449;28;20046;-63
2022/07/13 12:58:47;;;;;;;2.65;1.20;;;31.60;38.80;;;;;;5007260;28;20117;-62
2022/07/13 13:01:32;;;;;;;1.80;1.10;;;31.70;43.30;;;;;;5008400;28;20049;-63
2022/07/13 13:04:02;;;;;;;6.38;1.02;;;31.70;42.60;;;;;;5009148;28;20116;-62